Time;durP1;ratioP1;P1;durP2;ratioP2;P2;SDS_P1;SDS_P2;PMS_P1;PMS_P2;Temp;Humidity;BMP_temperature;BMP_pressure;BME280_temperature;BME280_humidity;BME280_pressure;Samples;Min_cycle;Max_cycle;Signal;HPM_P1;HPM_P2
2021/12/30 00:00:21;;;;;;;31.20;5.33;;;8.50;99.90;;;;;;4992959;28;20042;-31
2021/12/30 00:02:47;;;;;;;32.70;6.13;;;8.50;99.90;;;;;;5008940;28;20448;-30
2021/12/30 00:05:14;;;;;;;29.17;6.10;;;8.50;99.90;;;;;;4999024;28;20041;-31
2021/12/30 00:07:40;;;;;;;41.97;7.17;;;8.50;99.90;;;;;;4994325;28;20423;-31
2021/12/30 00:10:07;;;;;;;39.93;6.63;;;8.50;99.90;;;;;;5011049;28;20050;-30
2021/12/30 00:12:32;;;;;;;30.70;6.13;;;8.50;99.90;;;;;;5009654;28;20037;-31
2021/12/30 00:14:58;;;;;;;38.83;6.97;;;8.40;99.90;;;;;;4992796;28;20072;-31
2021/12/30 00:17:24;;;;;;;33.83;6.93;;;8.40;99.90;;;;;;4994319;28;20052;-31
2021/12/30 00:19:49;;;;;;;30.13;7.00;;;8.40;99.90;;;;;;5010486;28;20547;-31
2021/12/30 00:22:15;;;;;;;41.33;7.07;;;8.40;99.90;;;;;;5010018;28;20085;-31
2021/12/30 00:24:41;;;;;;;34.60;6.73;;;8.40;99.90;;;;;;5010503;28;20482;-30
2021/12/30 00:27:07;;;;;;;35.03;6.97;;;8.40;99.90;;;;;;4993936;28;20481;-31
2021/12/30 00:29:33;;;;;;;45.30;8.13;;;8.40;99.90;;;;;;5010430;28;20671;-30
2021/12/30 00:31:59;;;;;;;42.50;7.63;;;8.50;99.90;;;;;;4993136;28;20045;-31
2021/12/30 00:34:25;;;;;;;40.77;9.20;;;8.40;99.90;;;;;;5009264;28;20501;-30
2021/12/30 00:36:51;;;;;;;46.77;8.23;;;8.50;99.90;;;;;;4994104;28;20432;-31
2021/12/30 00:39:16;;;;;;;45.67;9.23;;;8.50;99.90;;;;;;5009656;28;20038;-31
2021/12/30 00:41:42;;;;;;;46.97;9.03;;;8.50;99.90;;;;;;5009865;28;20111;-31
2021/12/30 00:44:08;;;;;;;49.77;9.47;;;8.50;99.90;;;;;;5009406;28;20052;-31
2021/12/30 00:46:34;;;;;;;42.00;8.43;;;8.50;99.90;;;;;;4978189;28;20461;-31
2021/12/30 00:48:59;;;;;;;39.57;8.60;;;8.50;99.90;;;;;;4989528;28;20046;-31
2021/12/30 00:51:25;;;;;;;54.60;9.07;;;8.50;99.90;;;;;;5009989;28;20049;-30
2021/12/30 00:53:51;;;;;;;49.07;10.20;;;8.50;99.90;;;;;;5009165;28;20390;-31
2021/12/30 00:56:17;;;;;;;52.67;9.53;;;8.50;99.90;;;;;;4999342;28;20054;-31
2021/12/30 00:58:43;;;;;;;52.73;9.07;;;8.50;99.90;;;;;;5004198;28;20080;-31
2021/12/30 01:01:08;;;;;;;54.47;10.03;;;8.50;99.90;;;;;;5009397;28;20045;-30
2021/12/30 01:03:34;;;;;;;55.37;9.57;;;8.50;99.90;;;;;;5008982;28;20042;-32
2021/12/30 01:06:01;;;;;;;51.47;9.40;;;8.50;99.90;;;;;;5009764;28;20571;-30
2021/12/30 01:08:27;;;;;;;40.53;9.60;;;8.50;99.90;;;;;;4992964;28;20053;-31
2021/12/30 01:10:53;;;;;;;50.77;9.80;;;8.50;99.90;;;;;;5009868;28;20580;-30
2021/12/30 01:13:24;;;;;;;49.53;9.87;;;8.60;99.90;;;;;;4990892;28;20413;-31
2021/12/30 01:20:52;;;;;;;56.30;10.10;;;8.50;99.90;;;;;;5009642;28;20452;-30
2021/12/30 01:23:19;;;;;;;59.97;10.47;;;8.50;99.90;;;;;;5008464;28;20502;-30
2021/12/30 01:25:44;;;;;;;52.63;10.07;;;8.40;99.90;;;;;;5009390;28;20046;-31
2021/12/30 01:28:10;;;;;;;54.63;9.73;;;8.40;99.90;;;;;;4993042;28;20057;-31
2021/12/30 01:30:36;;;;;;;51.93;10.60;;;8.40;99.90;;;;;;4991866;28;20096;-32
2021/12/30 01:33:01;;;;;;;52.30;10.27;;;8.40;99.90;;;;;;4990756;28;20060;-31
2021/12/30 01:35:27;;;;;;;56.83;11.07;;;8.40;99.90;;;;;;4991777;28;20056;-31
2021/12/30 01:37:57;;;;;;;52.00;10.37;;;8.40;99.90;;;;;;4993416;28;20041;-31
2021/12/30 01:40:23;;;;;;;52.97;10.53;;;8.40;99.90;;;;;;5009219;28;20061;-31
2021/12/30 01:42:50;;;;;;;53.13;9.20;;;8.40;99.90;;;;;;4990730;28;20056;-31
2021/12/30 01:45:16;;;;;;;56.07;10.60;;;8.30;99.90;;;;;;5009402;28;20053;-31
2021/12/30 01:47:49;;;;;;;53.70;10.60;;;8.30;99.90;;;;;;4992739;28;20093;-31
2021/12/30 01:50:16;;;;;;;51.13;9.90;;;8.30;99.90;;;;;;4989597;28;20414;-31
2021/12/30 01:52:41;;;;;;;50.27;10.30;;;8.30;99.90;;;;;;4970873;28;20494;-31
2021/12/30 01:55:08;;;;;;;53.90;10.60;;;8.30;99.90;;;;;;4988218;28;20061;-30
2021/12/30 01:57:34;;;;;;;50.67;10.10;;;8.30;99.90;;;;;;4985673;28;20111;-31
2021/12/30 02:00:00;;;;;;;50.70;9.50;;;8.30;99.90;;;;;;5009177;28;20175;-30
2021/12/30 02:02:25;;;;;;;48.27;10.40;;;8.30;99.90;;;;;;4992324;28;20578;-31
2021/12/30 02:04:52;;;;;;;46.87;9.47;;;8.30;99.90;;;;;;4964558;28;20054;-31
2021/12/30 02:07:18;;;;;;;46.10;10.27;;;8.20;99.90;;;;;;4981973;28;20591;-31
2021/12/30 02:09:44;;;;;;;55.37;9.77;;;8.20;99.90;;;;;;4996253;28;20204;-31
2021/12/30 02:12:10;;;;;;;49.10;9.00;;;8.30;99.90;;;;;;4977570;28;20149;-31
2021/12/30 02:14:36;;;;;;;43.27;8.63;;;8.20;99.90;;;;;;4988885;28;20198;-31
2021/12/30 02:17:04;;;;;;;41.73;8.87;;;8.20;99.90;;;;;;4956284;28;20476;-31
2021/12/30 02:19:32;;;;;;;44.77;9.63;;;8.10;99.90;;;;;;4987737;28;20038;-30
2021/12/30 02:21:58;;;;;;;35.17;8.97;;;8.10;99.90;;;;;;4988907;28;20046;-30
2021/12/30 02:24:23;;;;;;;54.80;9.40;;;8.10;99.90;;;;;;5004690;28;20730;-31
2021/12/30 02:26:51;;;;;;;49.13;8.90;;;8.10;99.90;;;;;;4974825;28;20614;-31
2021/12/30 02:29:17;;;;;;;45.33;9.53;;;8.10;99.90;;;;;;5007298;28;20192;-31
2021/12/30 02:31:43;;;;;;;49.13;9.40;;;8.00;99.90;;;;;;5008260;28;20041;-31
2021/12/30 02:34:09;;;;;;;46.47;9.17;;;8.00;99.90;;;;;;5007501;28;20452;-31
2021/12/30 02:36:36;;;;;;;50.67;8.43;;;7.90;99.90;;;;;;4986597;28;20525;-31
2021/12/30 02:39:13;;;;;;;45.13;8.90;;;7.90;99.90;;;;;;4986970;28;20050;-31
2021/12/30 02:41:39;;;;;;;45.10;8.40;;;7.90;99.90;;;;;;4967780;28;20063;-30
2021/12/30 02:44:07;;;;;;;40.87;9.17;;;7.90;99.90;;;;;;4968331;28;20050;-31
2021/12/30 02:46:35;;;;;;;48.17;8.97;;;7.80;99.90;;;;;;4959038;28;20039;-31
2021/12/30 02:49:01;;;;;;;47.13;9.03;;;7.80;99.90;;;;;;4986094;28;20130;-31
2021/12/30 02:51:28;;;;;;;49.73;9.13;;;7.80;99.90;;;;;;4988799;28;20363;-30
2021/12/30 02:53:54;;;;;;;46.30;9.00;;;7.80;99.90;;;;;;4987598;28;20057;-31
2021/12/30 02:56:21;;;;;;;49.77;8.97;;;7.80;99.90;;;;;;4977318;28;20034;-31
2021/12/30 02:58:47;;;;;;;51.57;10.37;;;7.80;99.90;;;;;;4984755;28;20093;-31
2021/12/30 03:01:22;;;;;;;46.83;9.90;;;7.80;99.90;;;;;;4988586;28;20471;-31
2021/12/30 03:03:50;;;;;;;48.63;9.77;;;7.80;99.90;;;;;;4987725;28;20093;-31
2021/12/30 03:06:17;;;;;;;58.07;9.63;;;7.80;99.90;;;;;;4980771;28;20395;-31
2021/12/30 03:08:43;;;;;;;41.77;9.33;;;7.70;99.90;;;;;;4986646;28;20046;-30
2021/12/30 03:11:10;;;;;;;50.07;9.30;;;7.70;99.90;;;;;;4992226;28;20051;-30
2021/12/30 03:13:36;;;;;;;48.13;9.83;;;7.70;99.90;;;;;;4991348;28;20052;-30
2021/12/30 03:16:11;;;;;;;50.67;9.93;;;7.70;99.90;;;;;;4992378;28;20117;-31
2021/12/30 03:18:37;;;;;;;59.27;9.80;;;7.70;99.90;;;;;;4983745;28;20057;-31
2021/12/30 03:21:05;;;;;;;45.93;10.03;;;7.70;99.90;;;;;;4992459;28;20082;-31
2021/12/30 03:23:31;;;;;;;61.57;11.60;;;7.70;99.90;;;;;;4990961;28;20050;-31
2021/12/30 03:25:57;;;;;;;54.57;10.87;;;7.70;99.90;;;;;;4991284;28;20056;-31
2021/12/30 03:28:23;;;;;;;61.20;11.37;;;7.70;99.90;;;;;;4939159;28;20055;-30
2021/12/30 03:30:49;;;;;;;61.73;11.70;;;7.70;99.90;;;;;;4972715;28;20047;-30
2021/12/30 03:33:15;;;;;;;62.93;12.13;;;7.80;99.90;;;;;;4971614;28;20086;-31
2021/12/30 03:35:40;;;;;;;67.03;12.17;;;7.80;99.90;;;;;;4971074;28;20074;-31
2021/12/30 03:38:07;;;;;;;73.90;13.33;;;7.80;99.90;;;;;;4976462;28;20038;-30
2021/12/30 03:40:33;;;;;;;58.73;12.17;;;7.90;99.90;;;;;;5002104;28;20141;-30
2021/12/30 03:42:59;;;;;;;62.00;12.40;;;7.80;99.90;;;;;;5010649;28;20138;-30
2021/12/30 03:45:25;;;;;;;64.20;12.13;;;7.80;99.90;;;;;;5011291;28;20121;-31
2021/12/30 03:47:52;;;;;;;68.53;13.33;;;7.90;99.90;;;;;;4994323;28;20038;-31
2021/12/30 03:50:24;;;;;;;58.43;13.07;;;7.80;99.90;;;;;;5011427;28;20054;-31
2021/12/30 03:53:00;;;;;;;61.70;12.17;;;7.90;99.90;;;;;;5010520;28;20089;-31
2021/12/30 03:55:29;;;;;;;68.37;13.33;;;7.90;99.90;;;;;;4993126;28;20112;-31
2021/12/30 03:57:55;;;;;;;63.13;13.37;;;8.00;99.90;;;;;;4978429;28;20174;-31
2021/12/30 04:00:22;;;;;;;60.33;13.30;;;8.00;99.90;;;;;;4976189;28;20457;-31
2021/12/30 04:02:48;;;;;;;67.23;13.17;;;8.00;99.90;;;;;;4992671;28;20453;-30
2021/12/30 04:05:14;;;;;;;62.53;12.47;;;7.90;99.90;;;;;;5010773;28;20132;-31
2021/12/30 04:07:40;;;;;;;58.80;12.90;;;8.00;99.90;;;;;;4993656;28;20050;-31
2021/12/30 04:10:09;;;;;;;56.57;12.23;;;8.10;99.90;;;;;;5011016;28;20077;-30
2021/12/30 04:12:35;;;;;;;58.97;13.40;;;8.10;99.90;;;;;;4992258;28;20040;-31
2021/12/30 04:15:03;;;;;;;60.00;12.80;;;8.10;99.90;;;;;;5010832;28;20050;-31
2021/12/30 04:17:29;;;;;;;62.73;13.20;;;8.20;99.90;;;;;;4993032;28;20104;-31
2021/12/30 04:19:55;;;;;;;59.03;12.37;;;8.10;99.90;;;;;;4977108;28;20493;-31
2021/12/30 04:22:20;;;;;;;65.17;13.40;;;8.20;99.90;;;;;;5009872;28;20038;-30
2021/12/30 04:24:47;;;;;;;61.03;12.53;;;8.10;99.90;;;;;;4990466;28;20046;-31
2021/12/30 04:27:13;;;;;;;57.60;12.67;;;8.10;99.90;;;;;;4975034;28;20132;-31
2021/12/30 04:29:39;;;;;;;58.63;12.53;;;8.20;99.90;;;;;;4990770;28;20084;-31
2021/12/30 04:32:05;;;;;;;70.43;13.50;;;8.20;99.90;;;;;;4989972;28;20081;-30
2021/12/30 04:34:31;;;;;;;61.00;13.17;;;8.20;99.90;;;;;;4989327;28;20050;-31
2021/12/30 04:36:58;;;;;;;60.53;13.20;;;8.20;99.90;;;;;;4980974;28;20124;-30
2021/12/30 04:39:25;;;;;;;68.60;12.43;;;8.30;99.90;;;;;;4990404;28;20042;-31
2021/12/30 04:41:51;;;;;;;54.73;12.63;;;8.30;99.90;;;;;;4990351;28;20100;-31
2021/12/30 04:44:17;;;;;;;75.23;14.17;;;8.40;99.90;;;;;;4989655;28;20086;-31
2021/12/30 04:46:43;;;;;;;68.90;14.13;;;8.30;99.90;;;;;;4975064;28;20085;-31
2021/12/30 04:49:08;;;;;;;68.27;14.00;;;8.40;99.90;;;;;;4989401;28;20039;-31
2021/12/30 04:51:34;;;;;;;66.43;14.20;;;8.40;99.90;;;;;;4973281;28;20058;-30
2021/12/30 04:54:00;;;;;;;85.27;14.63;;;8.40;99.90;;;;;;4989302;28;20113;-31
2021/12/30 04:56:25;;;;;;;73.97;13.40;;;8.50;99.90;;;;;;4960207;28;20117;-31
2021/12/30 04:58:51;;;;;;;67.07;14.90;;;8.60;99.90;;;;;;4968611;28;20063;-31
2021/12/30 05:01:17;;;;;;;68.27;14.00;;;8.50;99.90;;;;;;4988599;28;20524;-31
2021/12/30 05:03:43;;;;;;;74.73;14.83;;;8.50;99.90;;;;;;4975160;28;20046;-31
2021/12/30 05:06:09;;;;;;;74.93;15.90;;;8.60;99.90;;;;;;4961433;28;20054;-31
2021/12/30 05:08:35;;;;;;;91.40;17.50;;;8.50;99.90;;;;;;4981434;28;20034;-31
2021/12/30 05:11:01;;;;;;;83.63;17.30;;;8.70;99.90;;;;;;4980987;28;20054;-31
2021/12/30 05:13:26;;;;;;;90.83;18.27;;;8.80;99.90;;;;;;4989003;28;20042;-31
2021/12/30 05:15:52;;;;;;;117.60;21.27;;;8.80;99.90;;;;;;4989664;28;20046;-31
2021/12/30 05:18:20;;;;;;;105.33;21.97;;;8.90;99.90;;;;;;4973559;28;20042;-31
2021/12/30 05:20:46;;;;;;;123.40;24.13;;;9.00;99.90;;;;;;4989960;28;20046;-31
2021/12/30 05:23:11;;;;;;;104.23;23.43;;;9.10;99.90;;;;;;4989142;28;20043;-31
2021/12/30 05:25:37;;;;;;;125.17;25.37;;;9.20;99.90;;;;;;4989461;28;20402;-31
2021/12/30 05:28:03;;;;;;;118.30;25.63;;;9.30;99.90;;;;;;4973221;28;20050;-31
2021/12/30 05:30:29;;;;;;;110.83;25.77;;;9.30;99.90;;;;;;4971870;28;20481;-31
2021/12/30 05:32:57;;;;;;;114.30;26.13;;;9.40;99.90;;;;;;4971332;28;20053;-31
2021/12/30 05:35:23;;;;;;;128.87;27.67;;;9.40;99.90;;;;;;4989773;28;20085;-30
2021/12/30 05:37:49;;;;;;;120.97;27.13;;;9.40;99.90;;;;;;4973497;28;20120;-31
2021/12/30 05:40:18;;;;;;;128.60;28.00;;;9.50;99.90;;;;;;4971702;28;20064;-31
2021/12/30 05:42:44;;;;;;;115.93;27.80;;;9.50;99.90;;;;;;4988587;28;20055;-31
2021/12/30 05:45:11;;;;;;;122.40;29.10;;;9.60;99.90;;;;;;4989890;28;20046;-31
2021/12/30 05:47:37;;;;;;;119.90;28.90;;;9.60;99.90;;;;;;4973184;28;20042;-31
2021/12/30 05:50:06;;;;;;;108.00;27.03;;;9.70;99.90;;;;;;4971658;28;20057;-31
2021/12/30 05:52:33;;;;;;;104.63;25.80;;;9.70;99.90;;;;;;4988756;28;20073;-31
2021/12/30 05:54:59;;;;;;;86.53;24.47;;;9.60;99.90;;;;;;4989096;28;20046;-31
2021/12/30 05:57:24;;;;;;;75.47;23.57;;;9.90;99.90;;;;;;4961115;28;20391;-31
2021/12/30 05:59:50;;;;;;;74.50;23.37;;;9.80;99.90;;;;;;4969958;28;20074;-31
2021/12/30 06:02:16;;;;;;;66.33;21.13;;;9.80;99.90;;;;;;4986322;28;20038;-31
2021/12/30 06:04:42;;;;;;;77.57;22.47;;;9.90;99.90;;;;;;4962456;28;20089;-31
2021/12/30 06:07:08;;;;;;;76.43;22.33;;;10.00;99.90;;;;;;4961271;28;20097;-31
2021/12/30 06:09:34;;;;;;;64.57;20.73;;;9.90;99.90;;;;;;4972328;28;20457;-32
2021/12/30 06:12:00;;;;;;;63.53;21.03;;;10.00;99.90;;;;;;4988750;28;20140;-31
2021/12/30 06:14:26;;;;;;;65.60;20.83;;;10.00;99.90;;;;;;4987692;28;20185;-31
2021/12/30 06:16:51;;;;;;;51.40;20.27;;;10.00;99.90;;;;;;4974041;28;20053;-31
2021/12/30 06:19:17;;;;;;;60.70;20.83;;;10.00;99.90;;;;;;4979555;28;20058;-31
2021/12/30 06:21:43;;;;;;;57.57;20.17;;;10.00;99.90;;;;;;4969485;28;20043;-31
2021/12/30 06:24:09;;;;;;;58.87;20.60;;;10.10;99.90;;;;;;4982430;28;20062;-31
2021/12/30 06:26:34;;;;;;;58.93;20.67;;;10.10;99.90;;;;;;4974144;28;20077;-31
2021/12/30 06:29:00;;;;;;;53.17;19.57;;;10.20;99.90;;;;;;4984862;28;20073;-31
2021/12/30 06:31:26;;;;;;;60.10;21.23;;;10.10;99.90;;;;;;4969502;28;20413;-31
2021/12/30 06:33:51;;;;;;;57.60;22.77;;;10.20;99.90;;;;;;4986362;28;20112;-30
2021/12/30 06:36:21;;;;;;;65.77;22.93;;;10.20;99.90;;;;;;4976118;28;20054;-31
2021/12/30 06:38:47;;;;;;;64.77;21.00;;;10.20;99.90;;;;;;4983517;28;20047;-31
2021/12/30 06:41:14;;;;;;;75.77;23.17;;;10.30;99.90;;;;;;4980920;28;20204;-31
2021/12/30 06:43:39;;;;;;;66.03;22.37;;;10.30;99.90;;;;;;4983579;28;20541;-31
2021/12/30 06:46:05;;;;;;;73.47;23.30;;;10.30;99.90;;;;;;4982220;28;20042;-31
2021/12/30 06:48:32;;;;;;;71.43;23.97;;;10.40;99.90;;;;;;4979997;28;20710;-31
2021/12/30 06:50:59;;;;;;;77.20;24.87;;;10.40;99.90;;;;;;4993345;28;20050;-31
2021/12/30 06:53:25;;;;;;;76.40;24.57;;;10.40;99.90;;;;;;4992722;28;20453;-31
2021/12/30 06:55:52;;;;;;;72.57;25.57;;;10.50;99.90;;;;;;4993224;28;20096;-31
2021/12/30 06:58:19;;;;;;;66.20;23.07;;;10.50;99.90;;;;;;4967708;28;20431;-31
2021/12/30 07:00:45;;;;;;;70.70;23.60;;;10.50;99.90;;;;;;4982753;28;20051;-31
2021/12/30 07:03:11;;;;;;;60.40;21.67;;;10.50;99.90;;;;;;4984276;28;20410;-31
2021/12/30 07:05:37;;;;;;;52.77;20.97;;;10.60;99.90;;;;;;4980690;28;20061;-32
2021/12/30 07:08:03;;;;;;;56.23;20.03;;;10.60;99.90;;;;;;4976765;28;20383;-31
2021/12/30 07:10:29;;;;;;;56.80;21.03;;;10.60;99.90;;;;;;4987412;28;20046;-31
2021/12/30 07:12:55;;;;;;;42.67;17.03;;;10.60;99.90;;;;;;4992234;28;20035;-31
2021/12/30 07:15:21;;;;;;;39.50;16.93;;;10.60;99.90;;;;;;4974958;28;20046;-31
2021/12/30 07:17:47;;;;;;;43.63;16.37;;;10.70;99.90;;;;;;4976979;28;20116;-31
2021/12/30 07:20:13;;;;;;;43.27;16.17;;;10.70;99.90;;;;;;4975186;28;20054;-31
2021/12/30 07:22:39;;;;;;;30.67;14.77;;;10.70;99.90;;;;;;4989000;28;20049;-31
2021/12/30 07:25:06;;;;;;;32.20;14.17;;;10.70;99.90;;;;;;4983322;28;20133;-31
2021/12/30 07:27:32;;;;;;;37.27;13.57;;;10.70;99.90;;;;;;4966296;28;20086;-31
2021/12/30 07:29:59;;;;;;;33.47;13.87;;;10.80;99.90;;;;;;4984179;28;20049;-31
2021/12/30 07:32:25;;;;;;;29.13;13.63;;;10.70;99.90;;;;;;4982692;28;20051;-31
2021/12/30 07:34:52;;;;;;;24.60;10.43;;;10.70;99.90;;;;;;4981992;28;20085;-31
2021/12/30 07:37:18;;;;;;;31.20;11.87;;;10.80;99.90;;;;;;4972189;28;20074;-31
2021/12/30 07:39:46;;;;;;;22.97;10.73;;;10.70;99.90;;;;;;4992992;28;20086;-31
2021/12/30 07:42:13;;;;;;;20.90;10.00;;;10.80;99.90;;;;;;4992473;28;20084;-31
2021/12/30 07:44:39;;;;;;;25.83;9.60;;;10.80;99.90;;;;;;4972579;28;20058;-31
2021/12/30 07:47:06;;;;;;;17.27;8.70;;;10.80;99.90;;;;;;4976453;28;20054;-31
2021/12/30 07:49:32;;;;;;;17.50;8.83;;;10.80;99.90;;;;;;4992562;28;20038;-31
2021/12/30 07:51:59;;;;;;;18.50;8.33;;;10.80;99.90;;;;;;4989678;28;20073;-31
2021/12/30 07:54:25;;;;;;;14.53;8.17;;;10.90;99.90;;;;;;4989083;28;20497;-31
2021/12/30 07:56:51;;;;;;;15.60;8.33;;;10.90;99.90;;;;;;4971992;28;20046;-31
2021/12/30 07:59:16;;;;;;;13.90;7.93;;;10.90;99.90;;;;;;4954617;28;20210;-31
2021/12/30 08:01:42;;;;;;;14.50;7.93;;;10.90;99.90;;;;;;4986567;28;20395;-31
2021/12/30 08:04:08;;;;;;;15.37;8.00;;;10.90;99.90;;;;;;4986090;28;20053;-31
2021/12/30 08:06:34;;;;;;;15.53;8.73;;;11.00;99.90;;;;;;4974745;28;20050;-31
2021/12/30 08:09:00;;;;;;;13.73;7.23;;;10.90;99.90;;;;;;4979892;28;20058;-31
2021/12/30 08:11:25;;;;;;;13.03;7.20;;;10.90;99.90;;;;;;4983197;28;20046;-32
2021/12/30 08:13:51;;;;;;;12.60;7.32;;;11.00;99.90;;;;;;4963182;28;20434;-32
2021/12/30 08:16:17;;;;;;;10.13;6.57;;;11.00;99.90;;;;;;4976312;28;20050;-32
2021/12/30 08:18:43;;;;;;;9.70;5.90;;;11.00;99.90;;;;;;4982117;28;20046;-32
2021/12/30 08:21:10;;;;;;;9.93;6.20;;;11.00;99.90;;;;;;4986997;28;20042;-32
2021/12/30 08:23:36;;;;;;;8.90;6.30;;;11.00;99.90;;;;;;4987260;28;20053;-31
2021/12/30 08:26:05;;;;;;;9.33;6.63;;;11.10;99.90;;;;;;4976115;28;20038;-32
2021/12/30 08:28:31;;;;;;;8.60;6.07;;;11.10;99.90;;;;;;4943817;28;20151;-31
2021/12/30 08:30:58;;;;;;;9.53;6.80;;;11.10;99.90;;;;;;4989557;28;20577;-31
2021/12/30 08:33:24;;;;;;;11.97;7.10;;;11.10;99.90;;;;;;4989330;28;20497;-32
2021/12/30 08:35:50;;;;;;;9.83;7.10;;;11.10;99.90;;;;;;4988740;28;20050;-32
2021/12/30 08:38:17;;;;;;;14.57;7.53;;;11.20;99.90;;;;;;4973420;28;20617;-32
2021/12/30 08:40:45;;;;;;;15.03;8.03;;;11.10;99.90;;;;;;4987224;28;20133;-32
2021/12/30 08:43:13;;;;;;;13.60;8.77;;;11.20;99.90;;;;;;4979045;28;20050;-31
2021/12/30 08:45:39;;;;;;;17.80;8.90;;;11.20;99.90;;;;;;4987542;28;20104;-31
2021/12/30 08:48:06;;;;;;;19.10;8.60;;;11.20;99.90;;;;;;4966326;28;20422;-31
2021/12/30 08:50:32;;;;;;;18.53;8.70;;;11.20;99.90;;;;;;4968539;28;20481;-32
2021/12/30 08:52:57;;;;;;;17.43;8.07;;;11.20;99.90;;;;;;4988594;28;20046;-32
2021/12/30 08:55:23;;;;;;;18.57;7.83;;;11.30;99.90;;;;;;4989677;28;20421;-31
2021/12/30 08:57:49;;;;;;;16.30;6.57;;;11.20;99.90;;;;;;4956181;28;20057;-32
2021/12/30 09:00:25;;;;;;;12.90;6.10;;;11.30;99.90;;;;;;4980794;28;20046;-32
2021/12/30 09:02:52;;;;;;;17.00;6.30;;;11.40;99.90;;;;;;4987086;28;20042;-32
2021/12/30 09:05:18;;;;;;;14.77;5.83;;;11.40;99.90;;;;;;4989897;28;20050;-32
2021/12/30 09:07:44;;;;;;;9.87;5.10;;;11.30;99.90;;;;;;4973058;28;20038;-32
2021/12/30 09:10:12;;;;;;;11.90;4.80;;;11.30;99.90;;;;;;4985971;28;20104;-32
2021/12/30 09:12:42;;;;;;;13.43;4.50;;;11.40;99.90;;;;;;4986422;28;20393;-32
2021/12/30 09:15:09;;;;;;;12.85;4.15;;;11.40;99.90;;;;;;4988620;28;20072;-32
2021/12/30 09:17:34;;;;;;;13.63;4.60;;;11.30;99.90;;;;;;4972065;28;20050;-31
2021/12/30 09:20:00;;;;;;;17.95;4.90;;;11.40;99.90;;;;;;4990235;28;20049;-31
2021/12/30 09:22:26;;;;;;;12.77;4.22;;;11.40;99.90;;;;;;4988673;28;20052;-32
2021/12/30 09:24:51;;;;;;;17.70;4.57;;;11.40;99.90;;;;;;4970745;28;20051;-32
2021/12/30 09:27:17;;;;;;;15.20;5.27;;;11.40;99.90;;;;;;4954005;28;20046;-32
2021/12/30 09:29:43;;;;;;;18.93;4.93;;;11.40;99.90;;;;;;4970315;28;20093;-31
2021/12/30 09:32:09;;;;;;;20.93;4.97;;;11.40;99.90;;;;;;4969777;28;20183;-31
2021/12/30 09:34:34;;;;;;;21.17;5.30;;;11.40;99.90;;;;;;4970568;28;20081;-31
2021/12/30 09:37:00;;;;;;;21.58;5.40;;;11.40;99.90;;;;;;4936984;28;20053;-31
2021/12/30 09:39:26;;;;;;;22.52;5.90;;;11.50;99.90;;;;;;4969824;28;20047;-32
2021/12/30 09:41:51;;;;;;;25.42;5.50;;;11.50;99.90;;;;;;4970072;28;20537;-32
2021/12/30 09:44:19;;;;;;;27.92;5.43;;;11.50;99.90;;;;;;4971952;28;20078;-31
2021/12/30 09:46:46;;;;;;;24.05;5.95;;;11.50;99.90;;;;;;4963263;28;20089;-32
2021/12/30 09:49:14;;;;;;;20.83;4.97;;;11.50;99.90;;;;;;4985681;28;20082;-31
2021/12/30 09:51:42;;;;;;;21.02;5.25;;;11.50;99.90;;;;;;4988863;28;20046;-31
2021/12/30 09:54:08;;;;;;;21.25;5.43;;;11.50;99.90;;;;;;4988095;28;20034;-32
2021/12/30 09:56:34;;;;;;;18.77;4.75;;;11.60;99.90;;;;;;4972873;28;20046;-31
2021/12/30 09:59:00;;;;;;;26.67;5.63;;;11.60;99.90;;;;;;4984975;28;20042;-31
2021/12/30 10:01:26;;;;;;;28.02;6.32;;;11.60;99.90;;;;;;4986318;28;20050;-31
2021/12/30 10:03:56;;;;;;;26.15;5.53;;;11.70;99.90;;;;;;4967819;28;20042;-31
2021/12/30 10:06:22;;;;;;;26.47;6.33;;;11.60;99.90;;;;;;4959060;28;20465;-31
2021/12/30 10:08:55;;;;;;;22.75;5.82;;;11.60;99.90;;;;;;4985083;28;20246;-31
2021/12/30 10:11:21;;;;;;;22.95;5.47;;;11.60;99.90;;;;;;4982266;28;20498;-31
2021/12/30 10:13:56;;;;;;;24.10;5.43;;;11.60;99.90;;;;;;4974643;28;20042;-31
2021/12/30 10:16:23;;;;;;;31.73;5.82;;;11.70;99.90;;;;;;4965582;28;20430;-32
2021/12/30 10:18:51;;;;;;;27.77;6.65;;;11.70;99.90;;;;;;4981022;28;20494;-31
2021/12/30 10:21:23;;;;;;;27.58;5.40;;;11.70;99.90;;;;;;4986019;28;20137;-32
2021/12/30 10:23:51;;;;;;;32.28;5.00;;;11.60;99.90;;;;;;4986867;28;20046;-32
2021/12/30 10:26:17;;;;;;;32.25;5.90;;;11.70;99.90;;;;;;4976609;28;20116;-32
2021/12/30 10:28:44;;;;;;;21.10;4.55;;;11.60;99.90;;;;;;4974377;28;20149;-32
2021/12/30 10:31:13;;;;;;;26.20;5.35;;;11.70;99.90;;;;;;4984328;28;20049;-31
2021/12/30 10:33:58;;;;;;;26.17;5.05;;;11.70;99.90;;;;;;4979039;28;20050;-32
2021/12/30 10:36:27;;;;;;;25.20;5.90;;;11.70;99.90;;;;;;4976139;28;20132;-32
2021/12/30 10:38:55;;;;;;;28.97;5.73;;;11.60;99.90;;;;;;4982484;28;20129;-32
2021/12/30 10:41:24;;;;;;;32.50;5.30;;;11.70;99.90;;;;;;4979809;28;20058;-32
2021/12/30 10:43:55;;;;;;;34.72;5.32;;;11.70;99.90;;;;;;4987773;28;20046;-32
2021/12/30 10:46:26;;;;;;;24.90;5.18;;;11.70;99.90;;;;;;4977724;28;20089;-32
2021/12/30 10:48:54;;;;;;;;;;;11.70;99.90;;;;;;4984994;28;20623;-32
2021/12/30 10:51:31;;;;;;;32.10;5.57;;;11.60;99.90;;;;;;4988398;28;20441;-32
2021/12/30 10:53:59;;;;;;;26.50;5.63;;;11.60;99.90;;;;;;4987670;28;20055;-31
2021/12/30 10:56:34;;;;;;;30.05;6.55;;;11.60;99.90;;;;;;4972400;28;20050;-31
2021/12/30 10:59:23;;;;;;;34.63;6.23;;;11.60;99.90;;;;;;4966565;28;20047;-32
2021/12/30 11:02:02;;;;;;;36.10;6.63;;;11.60;99.90;;;;;;4982952;28;20046;-31
2021/12/30 11:04:41;;;;;;;34.08;6.75;;;11.60;99.90;;;;;;4980718;28;20462;-31
2021/12/30 11:07:09;;;;;;;37.25;7.50;;;11.60;99.90;;;;;;4960768;28;20306;-31
2021/12/30 11:09:35;;;;;;;35.55;7.40;;;11.60;99.90;;;;;;4988244;28;20645;-31
2021/12/30 11:12:04;;;;;;;33.33;6.90;;;11.70;99.90;;;;;;4973413;28;20043;-31
2021/12/30 11:14:36;;;;;;;42.75;8.82;;;11.70;99.90;;;;;;4968222;28;20446;-32
2021/12/30 11:17:09;;;;;;;46.78;9.05;;;11.60;99.90;;;;;;4960438;28;20604;-32
2021/12/30 11:19:55;;;;;;;44.75;8.57;;;11.60;99.90;;;;;;4987685;28;20444;-31
2021/12/30 11:22:27;;;;;;;43.57;8.57;;;11.70;99.90;;;;;;4987499;28;20456;-31
2021/12/30 11:24:59;;;;;;;40.03;8.50;;;11.70;99.90;;;;;;4970188;28;20054;-32
2021/12/30 11:27:26;;;;;;;44.05;8.68;;;11.70;99.90;;;;;;4974997;28;20046;-32
2021/12/30 11:29:56;;;;;;;45.60;9.63;;;11.70;99.90;;;;;;4991954;28;20764;-32
2021/12/30 11:32:26;;;;;;;36.38;8.77;;;11.70;99.90;;;;;;4991029;28;20162;-32
2021/12/30 11:34:53;;;;;;;45.15;9.63;;;11.70;99.90;;;;;;4992194;28;20042;-31
2021/12/30 11:37:19;;;;;;;48.63;9.90;;;11.70;99.90;;;;;;4976309;28;20047;-32
2021/12/30 11:39:49;;;;;;;48.83;9.38;;;11.80;99.90;;;;;;4987109;28;20059;-32
2021/12/30 11:42:27;;;;;;;51.75;10.18;;;11.70;99.90;;;;;;4980489;28;20426;-31
2021/12/30 11:44:55;;;;;;;49.70;10.52;;;11.80;99.90;;;;;;4989709;28;20058;-31
2021/12/30 11:47:36;;;;;;;55.00;11.05;;;11.80;99.90;;;;;;4974415;28;20073;-32
2021/12/30 11:50:21;;;;;;;52.83;11.07;;;11.80;99.90;;;;;;4990708;28;20050;-32
2021/12/30 11:52:46;;;;;;;46.58;10.25;;;11.80;99.90;;;;;;4971875;28;20368;-31
2021/12/30 11:55:49;;;;;;;55.27;10.40;;;11.80;99.90;;;;;;4991297;28;20054;-32
2021/12/30 11:58:27;;;;;;;45.13;9.43;;;11.80;99.90;;;;;;4974672;28;20133;-31
2021/12/30 12:01:04;;;;;;;56.40;10.32;;;11.80;99.90;;;;;;4989753;28;20052;-32
2021/12/30 12:03:34;;;;;;;60.40;10.77;;;11.80;99.90;;;;;;4990190;28;20050;-32
2021/12/30 12:06:01;;;;;;;53.88;10.32;;;11.80;99.90;;;;;;4982129;28;20047;-32
2021/12/30 12:08:41;;;;;;;46.50;9.35;;;11.80;99.90;;;;;;4966741;28;20040;-31
2021/12/30 12:11:16;;;;;;;35.25;7.15;;;11.80;99.90;;;;;;4982438;28;20591;-31
2021/12/30 12:13:44;;;;;;;51.10;9.38;;;11.80;99.90;;;;;;4981485;28;20280;-32
2021/12/30 12:16:13;;;;;;;48.35;10.50;;;11.80;99.90;;;;;;4963970;28;20051;-32
2021/12/30 12:19:06;;;;;;;46.05;9.00;;;11.80;99.90;;;;;;4964555;28;20480;-32
2021/12/30 12:21:39;;;;;;;44.78;8.73;;;11.80;99.90;;;;;;4971198;28;20105;-31
2021/12/30 12:24:40;;;;;;;43.35;8.98;;;11.80;99.90;;;;;;4984819;28;20055;-31
2021/12/30 12:27:09;;;;;;;45.30;9.30;;;11.80;99.90;;;;;;4952793;28;20383;-31
2021/12/30 12:29:49;;;;;;;40.83;9.30;;;11.80;99.90;;;;;;4973485;28;20043;-31
2021/12/30 12:32:29;;;;;;;51.88;9.38;;;11.80;99.90;;;;;;4985542;28;20049;-32
2021/12/30 12:34:58;;;;;;;43.58;9.30;;;11.80;99.90;;;;;;4981276;28;20486;-31
2021/12/30 12:37:30;;;;;;;49.05;9.85;;;11.80;99.90;;;;;;4968050;28;20046;-32
2021/12/30 12:40:20;;;;;;;47.58;9.10;;;11.80;99.90;;;;;;4995142;28;20058;-32
2021/12/30 12:42:49;;;;;;;40.92;8.95;;;11.80;99.90;;;;;;5008756;28;20137;-31
2021/12/30 12:45:37;;;;;;;40.38;8.73;;;11.80;99.90;;;;;;5005641;28;20049;-32